createdAt,value
2019-01-21T00:00:22.050Z,-6.13
2019-01-21T00:02:50.465Z,-6.10
2019-01-21T00:05:18.773Z,-6.02
2019-01-21T00:07:47.243Z,-5.99
2019-01-21T00:10:15.566Z,-5.94
2019-01-21T00:12:43.858Z,-5.91
2019-01-21T00:15:12.464Z,-6.00
2019-01-21T00:17:40.937Z,-6.11
2019-01-21T00:20:09.299Z,-6.24
2019-01-21T00:22:37.643Z,-6.27
2019-01-21T00:25:06.912Z,-6.27
2019-01-21T00:27:35.244Z,-6.27
2019-01-21T00:30:04.279Z,-6.29
2019-01-21T00:32:32.732Z,-6.22
2019-01-21T00:35:01.122Z,-6.23
2019-01-21T00:37:29.391Z,-6.18
2019-01-21T00:39:57.705Z,-6.22
2019-01-21T00:42:26.200Z,-6.45
2019-01-21T00:44:54.474Z,-6.30
2019-01-21T00:47:29.588Z,-6.25
2019-01-21T00:49:52.904Z,-6.29
2019-01-21T00:52:21.190Z,-6.30
2019-01-21T00:54:51.007Z,-6.31
2019-01-21T00:57:19.604Z,-6.34
2019-01-21T00:59:47.947Z,-6.36
2019-01-21T01:02:16.257Z,-6.38
2019-01-21T01:04:44.672Z,-6.36
2019-01-21T01:07:12.945Z,-6.40
2019-01-21T01:09:41.223Z,-6.45
2019-01-21T01:12:09.523Z,-6.46
2019-01-21T01:14:37.872Z,-6.36
2019-01-21T01:17:06.180Z,-6.36
2019-01-21T01:19:34.568Z,-6.39
2019-01-21T01:22:02.874Z,-6.41
2019-01-21T01:24:31.211Z,-6.40
2019-01-21T01:26:59.587Z,-6.33
2019-01-21T01:29:27.865Z,-6.33
2019-01-21T01:31:56.184Z,-6.32
2019-01-21T01:34:24.454Z,-6.33
2019-01-21T01:36:52.837Z,-6.23
2019-01-21T01:39:21.179Z,-6.19
2019-01-21T01:41:49.490Z,-6.21
2019-01-21T01:44:17.791Z,-6.25
2019-01-21T01:46:46.404Z,-6.16
2019-01-21T01:49:14.731Z,-6.16
2019-01-21T01:51:45.351Z,-6.16
2019-01-21T01:54:15.353Z,-6.14
2019-01-21T01:56:43.629Z,-6.32
2019-01-21T01:59:12.185Z,-6.52
2019-01-21T02:01:40.556Z,-6.61
2019-01-21T02:04:08.981Z,-6.71
2019-01-21T02:06:37.382Z,-6.77
2019-01-21T02:09:07.188Z,-6.77
2019-01-21T02:11:35.914Z,-6.79
2019-01-21T02:14:04.183Z,-6.81
2019-01-21T02:16:32.490Z,-6.79
2019-01-21T02:19:00.836Z,-6.74
2019-01-21T02:21:29.262Z,-6.68
2019-01-21T02:24:00.629Z,-6.75
2019-01-21T02:26:29.070Z,-6.81
2019-01-21T02:29:06.306Z,-6.81
2019-01-21T02:31:52.591Z,-6.83
2019-01-21T02:34:30.091Z,-6.83
2019-01-21T02:37:23.685Z,-6.93
2019-01-21T02:39:58.172Z,-6.97
2019-01-21T02:42:32.618Z,-6.95
2019-01-21T02:45:07.094Z,-6.95
2019-01-21T02:47:41.402Z,-6.95
2019-01-21T02:50:28.230Z,-6.95
2019-01-21T02:53:02.467Z,-6.85
2019-01-21T02:55:53.384Z,-6.93
2019-01-21T02:58:41.233Z,-7.05
2019-01-21T03:01:27.712Z,-7.12
2019-01-21T03:04:33.701Z,-7.12
2019-01-21T03:07:05.323Z,-7.11
2019-01-21T03:09:45.715Z,-7.12
2019-01-21T03:12:46.532Z,-7.11
2019-01-21T03:15:40.525Z,-7.09
2019-01-21T03:18:43.678Z,-7.16
2019-01-21T03:21:32.745Z,-7.16
2019-01-21T03:24:25.226Z,-7.17
2019-01-21T03:27:05.666Z,-7.23
2019-01-21T03:29:49.298Z,-7.23
2019-01-21T03:32:42.037Z,-7.31
2019-01-21T03:35:46.713Z,-7.31
2019-01-21T03:38:37.548Z,-7.35
2019-01-21T03:41:13.556Z,-7.35
2019-01-21T03:44:04.285Z,-7.30
2019-01-21T03:46:41.802Z,-7.32
2019-01-21T03:49:16.577Z,-7.35
2019-01-21T03:52:05.947Z,-7.44
2019-01-21T03:54:34.455Z,-7.54
2019-01-21T03:57:06.126Z,-7.48
2019-01-21T04:00:01.516Z,-7.53
2019-01-21T04:03:01.490Z,-7.52
2019-01-21T04:05:35.710Z,-7.55
2019-01-21T04:08:12.826Z,-7.52
2019-01-21T04:10:50.126Z,-7.54
2019-01-21T04:13:33.714Z,-7.54
2019-01-21T04:16:05.255Z,-7.56
2019-01-21T04:18:46.012Z,-7.60
2019-01-21T04:21:54.855Z,-7.62
2019-01-21T04:24:38.530Z,-7.63
2019-01-21T04:27:26.158Z,-7.60
2019-01-21T04:30:19.113Z,-7.59
2019-01-21T04:33:19.412Z,-7.66
2019-01-21T04:36:05.603Z,-7.61
2019-01-21T04:38:42.988Z,-7.62
2019-01-21T04:41:18.651Z,-7.65
2019-01-21T04:43:50.312Z,-7.67
2019-01-21T04:46:21.842Z,-7.69
2019-01-21T04:49:04.787Z,-7.73
2019-01-21T04:51:48.024Z,-7.75
2019-01-21T04:54:25.553Z,-7.73
2019-01-21T04:57:18.048Z,-7.79
2019-01-21T05:00:04.499Z,-7.81
2019-01-21T05:03:10.296Z,-7.77
2019-01-21T05:05:42.030Z,-7.77
2019-01-21T05:08:29.989Z,-7.76
2019-01-21T05:11:13.338Z,-7.76
2019-01-21T05:13:44.969Z,-7.76
2019-01-21T05:16:28.341Z,-7.87
2019-01-21T05:19:08.672Z,-7.89
2019-01-21T05:21:55.080Z,-7.80
2019-01-21T05:24:44.703Z,-7.83
2019-01-21T05:27:19.237Z,-7.87
2019-01-21T05:29:59.829Z,-7.88
2019-01-21T05:32:37.064Z,-7.88
2019-01-21T05:35:29.763Z,-7.87
2019-01-21T05:38:13.390Z,-7.91
2019-01-21T05:40:48.421Z,-7.98
2019-01-21T05:43:36.296Z,-8.08
2019-01-21T05:46:30.443Z,-8.00
2019-01-21T05:49:28.403Z,-8.01
2019-01-21T05:52:15.330Z,-8.09
2019-01-21T05:55:04.652Z,-8.12
2019-01-21T05:57:57.085Z,-8.07
2019-01-21T06:00:28.692Z,-8.13
2019-01-21T06:03:08.936Z,-8.15
2019-01-21T06:05:52.475Z,-8.12
2019-01-21T06:08:58.344Z,-8.09
2019-01-21T06:11:46.395Z,-8.13
2019-01-21T06:14:38.778Z,-8.11
2019-01-21T06:17:47.640Z,-8.07
2019-01-21T06:20:28.049Z,-8.05
2019-01-21T06:23:11.633Z,-8.04
2019-01-21T06:25:49.175Z,-8.15
2019-01-21T06:28:35.635Z,-8.04
2019-01-21T06:31:32.016Z,-8.06
2019-01-21T06:34:33.693Z,-8.06
2019-01-21T06:37:13.845Z,-8.18
2019-01-21T06:40:34.683Z,-8.25
2019-01-21T06:43:06.214Z,-8.23
2019-01-21T06:45:52.912Z,-8.20
2019-01-21T06:48:36.227Z,-8.17
2019-01-21T06:51:26.054Z,-8.09
2019-01-21T06:54:06.325Z,-8.04
2019-01-21T06:56:57.242Z,-7.99
2019-01-21T07:00:05.935Z,-7.99
2019-01-21T07:02:55.228Z,-7.96
2019-01-21T07:05:39.109Z,-7.93
2019-01-21T07:08:43.680Z,-7.92
2019-01-21T07:11:49.422Z,-7.99
2019-01-21T07:14:32.989Z,-8.02
2019-01-21T07:17:10.814Z,-8.01
2019-01-21T07:19:46.313Z,-8.10
2019-01-21T07:22:51.635Z,-8.14
2019-01-21T07:26:00.261Z,-8.20
2019-01-21T07:28:43.862Z,-8.14
2019-01-21T07:31:30.155Z,-8.25
2019-01-21T07:34:06.897Z,-8.32
2019-01-21T07:36:55.031Z,-8.36
2019-01-21T07:39:42.907Z,-8.38
2019-01-21T07:42:23.189Z,-8.32
2019-01-21T07:44:57.725Z,-8.38
2019-01-21T07:47:45.637Z,-8.31
2019-01-21T07:50:35.355Z,-8.25
2019-01-21T07:53:12.637Z,-8.18
2019-01-21T07:56:02.094Z,-8.13
2019-01-21T07:58:36.448Z,-8.08
2019-01-21T08:01:28.982Z,-8.01
2019-01-21T08:04:33.413Z,-8.00
2019-01-21T08:07:20.080Z,-7.73
2019-01-21T08:10:00.240Z,-7.53
2019-01-21T08:12:52.806Z,-7.50
2019-01-21T08:15:27.310Z,-7.39
2019-01-21T08:18:15.546Z,-6.94
2019-01-21T08:20:56.158Z,-6.53
2019-01-21T08:23:51.442Z,-6.16
2019-01-21T08:26:25.754Z,-5.96
2019-01-21T08:29:03.414Z,-5.54
2019-01-21T08:31:35.058Z,-5.41
2019-01-21T08:34:12.159Z,-5.35
2019-01-21T08:36:46.244Z,-5.08
2019-01-21T08:39:32.641Z,-4.89
2019-01-21T08:42:26.087Z,-4.48
2019-01-21T08:45:15.684Z,-4.51
2019-01-21T08:47:56.095Z,-4.48
2019-01-21T08:50:51.592Z,-4.37
2019-01-21T08:53:23.128Z,-4.74
2019-01-21T08:55:54.718Z,-4.64
2019-01-21T08:59:03.198Z,-4.54
2019-01-21T09:01:57.277Z,-4.43
2019-01-21T09:05:03.407Z,-3.84
2019-01-21T09:07:51.526Z,-3.59
2019-01-21T09:10:39.771Z,-3.24
2019-01-21T09:13:19.984Z,-2.77
2019-01-21T09:16:02.908Z,-2.89
2019-01-21T09:18:34.462Z,-2.94
2019-01-21T09:21:24.204Z,-2.61
2019-01-21T09:23:58.503Z,-2.52
2019-01-21T09:26:56.276Z,-2.26
2019-01-21T09:29:27.854Z,-2.16
2019-01-21T09:32:15.776Z,-1.81
2019-01-21T09:35:08.061Z,-1.54
2019-01-21T09:37:48.102Z,-1.31
2019-01-21T09:40:22.383Z,-1.62
2019-01-21T09:43:10.319Z,-1.66
2019-01-21T09:46:05.744Z,-1.42
2019-01-21T09:48:33.111Z,-1.40
2019-01-21T09:51:04.695Z,-1.16
2019-01-21T09:53:33.182Z,-1.36
2019-01-21T09:56:01.536Z,-0.87
2019-01-21T09:58:29.879Z,-0.98
2019-01-21T10:00:58.180Z,-0.71
2019-01-21T10:03:26.461Z,-0.62
2019-01-21T10:05:58.064Z,-0.34
2019-01-21T10:08:29.649Z,-0.05
2019-01-21T10:11:04.519Z,0.08
2019-01-21T10:13:38.733Z,0.20
2019-01-21T10:16:28.378Z,0.19
2019-01-21T10:19:15.942Z,0.33
2019-01-21T10:21:56.275Z,0.45
2019-01-21T10:24:45.651Z,0.60
2019-01-21T10:27:17.232Z,0.75
2019-01-21T10:30:14.271Z,0.23
2019-01-21T10:33:02.483Z,0.26
2019-01-21T10:35:50.525Z,-0.01
2019-01-21T10:38:37.869Z,0.11
2019-01-21T10:41:12.057Z,-0.10
2019-01-21T10:43:52.181Z,-0.46
2019-01-21T10:46:57.069Z,-0.49
2019-01-21T10:49:59.222Z,-0.46
2019-01-21T10:53:02.139Z,-0.20
2019-01-21T10:55:49.821Z,-0.17
2019-01-21T10:58:30.236Z,0.08
2019-01-21T11:01:27.252Z,-0.06
2019-01-21T11:04:13.543Z,-0.13
2019-01-21T11:06:50.967Z,0.30
2019-01-21T11:09:28.317Z,0.69
2019-01-21T11:12:11.228Z,0.49
2019-01-21T11:14:42.806Z,0.16
2019-01-21T11:17:26.089Z,0.38
2019-01-21T11:20:16.808Z,0.34
2019-01-21T11:22:57.376Z,0.26
2019-01-21T11:25:48.208Z,0.49
2019-01-21T11:28:31.747Z,0.72
2019-01-21T11:31:15.128Z,0.63
2019-01-21T11:34:04.694Z,0.42
2019-01-21T11:36:39.058Z,0.40
2019-01-21T11:39:33.151Z,0.62
2019-01-21T11:42:25.634Z,0.86
2019-01-21T11:45:21.184Z,0.98
2019-01-21T11:48:04.886Z,1.33
2019-01-21T11:50:48.186Z,1.05
2019-01-21T11:53:19.830Z,1.06
2019-01-21T11:55:51.464Z,1.07
2019-01-21T11:58:51.602Z,1.18
2019-01-21T12:01:34.942Z,1.43
2019-01-21T12:04:30.402Z,1.50
2019-01-21T12:07:13.622Z,1.60
2019-01-21T12:10:01.591Z,1.83
2019-01-21T12:12:36.111Z,2.00
2019-01-21T12:15:19.518Z,1.97
2019-01-21T12:18:09.070Z,1.75
2019-01-21T12:20:49.365Z,2.07
2019-01-21T12:23:36.051Z,2.36
2019-01-21T12:26:22.387Z,2.58
2019-01-21T12:29:08.679Z,2.79
2019-01-21T12:31:49.227Z,2.70
2019-01-21T12:34:41.820Z,2.69
2019-01-21T12:37:21.991Z,2.61
2019-01-21T12:39:53.535Z,2.58
2019-01-21T12:42:25.199Z,2.67
2019-01-21T12:45:29.718Z,2.53
2019-01-21T12:48:10.033Z,2.69
2019-01-21T12:51:09.902Z,2.67
2019-01-21T12:53:50.322Z,2.79
2019-01-21T12:56:42.921Z,3.18
2019-01-21T12:59:17.463Z,3.32
2019-01-21T13:01:55.006Z,3.28
2019-01-21T13:04:29.495Z,3.29
2019-01-21T13:07:06.846Z,3.49
2019-01-21T13:09:41.002Z,3.55
2019-01-21T13:12:28.977Z,3.51
2019-01-21T13:15:29.012Z,3.44
2019-01-21T13:18:00.708Z,3.28
2019-01-21T13:20:50.278Z,2.91
2019-01-21T13:23:21.936Z,3.00
2019-01-21T13:26:02.172Z,1.64
2019-01-21T13:28:48.724Z,2.96
2019-01-21T13:31:38.074Z,3.22
2019-01-21T13:34:44.270Z,3.30
2019-01-21T13:37:44.103Z,3.50
2019-01-21T13:40:39.189Z,3.57
2019-01-21T13:43:39.173Z,3.32
2019-01-21T13:46:19.832Z,3.30
2019-01-21T13:48:51.440Z,3.45
2019-01-21T13:51:35.075Z,3.36
2019-01-21T13:54:06.733Z,3.33
2019-01-21T13:57:00.847Z,3.41
2019-01-21T13:59:41.559Z,3.43
2019-01-21T14:02:15.949Z,3.35
2019-01-21T14:05:02.775Z,3.25
2019-01-21T14:07:37.139Z,3.44
2019-01-21T14:10:14.575Z,3.12
2019-01-21T14:12:54.736Z,2.93
2019-01-21T14:15:31.991Z,3.08
2019-01-21T14:18:18.425Z,3.09
2019-01-21T14:20:50.030Z,2.97
2019-01-21T14:23:33.711Z,2.78
2019-01-21T14:26:16.959Z,2.65
2019-01-21T14:28:54.222Z,2.59
2019-01-21T14:31:31.613Z,2.53
2019-01-21T14:34:24.327Z,2.40
2019-01-21T14:37:05.043Z,2.37
2019-01-21T14:39:42.292Z,2.29
2019-01-21T14:42:13.951Z,2.13
2019-01-21T14:44:51.221Z,2.07
2019-01-21T14:47:32.397Z,2.16
2019-01-21T14:50:12.654Z,2.19
2019-01-21T14:53:03.596Z,2.13
2019-01-21T14:55:52.177Z,2.21
2019-01-21T14:58:26.887Z,2.21
2019-01-21T15:01:16.087Z,1.97
2019-01-21T15:04:04.259Z,1.91
2019-01-21T15:06:53.608Z,2.02
2019-01-21T15:09:40.070Z,2.07
2019-01-21T15:12:20.664Z,1.79
2019-01-21T15:15:16.634Z,1.60
2019-01-21T15:18:00.053Z,1.30
2019-01-21T15:20:31.677Z,1.31
2019-01-21T15:23:21.269Z,1.23
2019-01-21T15:25:53.405Z,1.13
2019-01-21T15:28:43.854Z,0.94
2019-01-21T15:31:15.515Z,0.84
2019-01-21T15:33:56.583Z,0.68
2019-01-21T15:36:47.321Z,0.48
2019-01-21T15:39:31.890Z,0.47
2019-01-21T15:42:27.859Z,0.55
2019-01-21T15:45:28.060Z,0.57
2019-01-21T15:48:16.245Z,0.49
2019-01-21T15:50:53.529Z,0.47
2019-01-21T15:53:25.238Z,0.54
2019-01-21T15:56:10.834Z,0.60
2019-01-21T15:58:53.071Z,0.57
2019-01-21T16:01:33.501Z,0.66
2019-01-21T16:04:05.017Z,0.66
2019-01-21T16:06:52.654Z,0.65
2019-01-21T16:09:30.564Z,0.72
2019-01-21T16:12:14.078Z,0.75
2019-01-21T16:14:45.919Z,0.69
2019-01-21T16:17:17.661Z,0.58
2019-01-21T16:19:46.019Z,0.61
2019-01-21T16:22:20.445Z,0.60
2019-01-21T16:25:01.375Z,0.68
2019-01-21T16:28:04.751Z,0.67
2019-01-21T16:30:37.958Z,0.53
2019-01-21T16:33:43.820Z,0.71
2019-01-21T16:36:30.870Z,0.72
2019-01-21T16:39:04.656Z,0.73
2019-01-21T16:41:39.213Z,0.66
2019-01-21T16:44:07.696Z,0.69
2019-01-21T16:46:36.881Z,0.76
2019-01-21T16:49:05.350Z,0.69
2019-01-21T16:51:33.618Z,0.66
2019-01-21T16:54:01.934Z,0.65
2019-01-21T16:56:30.374Z,0.75
2019-01-21T16:59:04.354Z,0.74
2019-01-21T17:01:33.354Z,0.75
2019-01-21T17:04:08.311Z,0.75
2019-01-21T17:06:39.608Z,0.74
2019-01-21T17:09:10.159Z,0.75
2019-01-21T17:11:38.578Z,0.79
2019-01-21T17:14:08.573Z,0.79
2019-01-21T17:16:36.858Z,0.77
2019-01-21T17:19:05.429Z,0.80
2019-01-21T17:24:04.200Z,0.79
2019-01-21T17:26:32.654Z,0.79
2019-01-21T17:29:02.331Z,0.79
2019-01-21T17:31:31.017Z,0.79
2019-01-21T17:33:59.696Z,0.76
2019-01-21T17:36:28.877Z,0.76
2019-01-21T17:38:57.331Z,0.80
2019-01-21T17:41:26.681Z,0.79
2019-01-21T17:43:55.035Z,0.75
2019-01-21T17:46:25.109Z,0.74
2019-01-21T17:48:53.527Z,0.70
2019-01-21T17:51:21.877Z,0.71
2019-01-21T17:53:51.443Z,0.69
2019-01-21T17:56:20.096Z,0.63
2019-01-21T17:58:49.225Z,0.57
2019-01-21T18:01:19.392Z,0.66
2019-01-21T18:03:49.842Z,0.62
2019-01-21T18:06:19.815Z,0.65
2019-01-21T18:08:47.918Z,0.66
2019-01-21T18:11:16.389Z,0.69
2019-01-21T18:13:44.825Z,0.71
2019-01-21T18:16:14.925Z,0.67
2019-01-21T18:18:43.686Z,0.63
2019-01-21T18:21:12.175Z,0.60
2019-01-21T18:23:41.068Z,0.62
2019-01-21T18:26:09.557Z,0.63
2019-01-21T18:28:38.198Z,0.69
2019-01-21T18:31:09.827Z,0.63
2019-01-21T18:33:38.845Z,0.71
2019-01-21T18:36:08.067Z,0.72
2019-01-21T18:38:39.542Z,0.73
2019-01-21T18:41:07.992Z,0.70
2019-01-21T18:43:36.336Z,0.68
2019-01-21T18:46:06.048Z,0.73
2019-01-21T18:48:34.313Z,0.76
2019-01-21T18:51:02.749Z,0.69
2019-01-21T18:53:35.245Z,0.70
2019-01-21T18:56:06.058Z,0.69
2019-01-21T18:58:34.368Z,0.64
2019-01-21T19:01:03.345Z,0.64
2019-01-21T19:03:37.079Z,0.61
2019-01-21T19:06:06.988Z,0.68
2019-01-21T19:08:35.699Z,0.71
2019-01-21T19:11:04.442Z,0.66
2019-01-21T19:13:32.892Z,0.66
2019-01-21T19:16:01.244Z,0.69
2019-01-21T19:18:29.660Z,0.70
2019-01-21T19:20:58.035Z,0.69
2019-01-21T19:23:29.402Z,0.73
2019-01-21T19:25:59.712Z,0.71
2019-01-21T19:28:28.093Z,0.72
2019-01-21T19:30:56.730Z,0.68
2019-01-21T19:33:25.060Z,0.66
2019-01-21T19:35:53.409Z,0.68
2019-01-21T19:38:22.642Z,-0.67
2019-01-21T19:40:51.074Z,0.67
2019-01-21T19:43:19.466Z,0.69
2019-01-21T19:45:47.757Z,0.63
2019-01-21T19:48:16.034Z,0.67
2019-01-21T19:50:44.339Z,0.64
2019-01-21T19:53:13.042Z,0.68
2019-01-21T19:56:02.319Z,0.65
2019-01-21T19:58:31.145Z,0.65
2019-01-21T20:00:59.549Z,0.64
2019-01-21T20:03:28.234Z,0.60
2019-01-21T20:05:56.502Z,0.60
2019-01-21T20:08:26.379Z,0.60
2019-01-21T20:10:55.017Z,0.60
2019-01-21T20:13:25.656Z,0.57
2019-01-21T20:15:59.405Z,0.58
2019-01-21T20:18:29.928Z,0.59
2019-01-21T20:20:58.314Z,0.63
2019-01-21T20:23:26.853Z,0.68
2019-01-21T20:25:55.228Z,0.64
2019-01-21T20:28:23.749Z,0.65
2019-01-21T20:30:52.119Z,0.68
2019-01-21T20:33:20.389Z,0.67
2019-01-21T20:35:48.684Z,0.65
2019-01-21T20:38:17.039Z,0.62
2019-01-21T20:40:45.456Z,0.59
2019-01-21T20:43:13.719Z,0.54
2019-01-21T20:45:42.059Z,0.53
2019-01-21T20:48:10.408Z,0.46
2019-01-21T20:50:38.776Z,0.41
2019-01-21T20:53:08.198Z,0.36
2019-01-21T20:55:36.599Z,0.31
2019-01-21T20:58:05.108Z,0.22
2019-01-21T21:00:33.567Z,0.21
2019-01-21T21:03:01.971Z,0.12
2019-01-21T21:05:30.494Z,0.11
2019-01-21T21:08:00.571Z,0.00
2019-01-21T21:10:29.142Z,0.02
2019-01-21T21:13:01.699Z,-0.11
2019-01-21T21:15:33.065Z,-0.15
2019-01-21T21:18:01.678Z,-0.22
2019-01-21T21:20:32.413Z,-0.23
2019-01-21T21:23:03.611Z,-0.35
2019-01-21T21:25:31.973Z,-0.30
2019-01-21T21:28:00.944Z,-0.29
2019-01-21T21:30:31.071Z,-0.35
2019-01-21T21:33:00.427Z,-0.36
2019-01-21T21:35:29.212Z,-0.45
2019-01-21T21:37:58.330Z,-0.49
2019-01-21T21:40:26.976Z,-0.56
2019-01-21T21:42:59.133Z,-0.60
2019-01-21T21:45:27.977Z,-0.57
2019-01-21T21:48:03.008Z,-0.59
2019-01-21T21:50:32.786Z,-0.56
2019-01-21T21:53:01.211Z,-0.81
2019-01-21T21:55:29.908Z,-0.50
2019-01-21T21:57:58.354Z,-0.52
2019-01-21T22:00:29.054Z,-0.54
2019-01-21T22:02:57.526Z,-0.71
2019-01-21T22:05:26.008Z,-0.67
2019-01-21T22:07:54.436Z,-0.70
2019-01-21T22:10:26.043Z,-0.81
2019-01-21T22:12:54.755Z,-0.85
2019-01-21T22:15:25.175Z,-0.93
2019-01-21T22:17:53.621Z,-0.95
2019-01-21T22:20:24.002Z,-0.86
2019-01-21T22:22:52.510Z,-0.82
2019-01-21T22:25:21.234Z,-0.88
2019-01-21T22:27:49.676Z,-0.87
2019-01-21T22:30:21.369Z,-0.96
2019-01-21T22:32:50.219Z,-0.95
2019-01-21T22:35:18.548Z,-0.90
2019-01-21T22:37:47.170Z,-0.97
2019-01-21T22:40:17.957Z,-0.94
2019-01-21T22:42:46.423Z,-0.92
2019-01-21T22:45:16.232Z,-0.92
2019-01-21T22:47:44.510Z,-0.93
2019-01-21T22:50:16.046Z,-1.02
2019-01-21T22:52:44.327Z,-0.98
2019-01-21T22:55:15.019Z,-1.05
2019-01-21T22:57:43.317Z,-1.06
2019-01-21T23:00:14.923Z,-0.92
2019-01-21T23:02:43.547Z,-0.94
2019-01-21T23:05:11.906Z,-1.06
2019-01-21T23:07:40.180Z,-1.12
2019-01-21T23:10:09.560Z,-1.22
2019-01-21T23:12:37.954Z,-1.15
2019-01-21T23:15:07.899Z,-1.13
2019-01-21T23:17:36.177Z,-1.14
2019-01-21T23:20:07.985Z,-1.18
2019-01-21T23:22:36.301Z,-1.31
2019-01-21T23:25:05.553Z,-1.25
2019-01-21T23:27:33.861Z,-1.35
2019-01-21T23:30:02.186Z,-1.37
2019-01-21T23:32:33.164Z,-1.22
2019-01-21T23:35:02.473Z,-1.19
2019-01-21T23:37:31.252Z,-1.18
2019-01-21T23:39:59.672Z,-1.17
2019-01-21T23:42:28.282Z,-1.10
2019-01-21T23:44:56.578Z,-1.02
2019-01-21T23:47:24.925Z,-1.03
2019-01-21T23:49:53.300Z,-0.98
2019-01-21T23:52:21.797Z,-0.91
2019-01-21T23:54:50.127Z,-0.85
2019-01-21T23:57:18.450Z,-0.84
2019-01-21T23:59:46.840Z,-0.84
